Time;durP1;ratioP1;P1;durP2;ratioP2;P2;SDS_P1;SDS_P2;PMS_P1;PMS_P2;Temp;Humidity;BMP_temperature;BMP_pressure;BME280_temperature;BME280_humidity;BME280_pressure;Samples;Min_cycle;Max_cycle;Signal;HPM_P1;HPM_P2
2021/05/03 00:00:09;;;;;;;6.83;5.37;;;6.10;99.90;;;;;;5052507;28;20226;-71
2021/05/03 00:02:35;;;;;;;6.70;5.90;;;6.10;99.90;;;;;;5053565;28;20253;-70
2021/05/03 00:05:05;;;;;;;8.53;6.03;;;6.20;99.90;;;;;;5053941;28;20448;-71
2021/05/03 00:07:31;;;;;;;8.17;5.67;;;6.20;99.90;;;;;;5052590;28;20511;-71
2021/05/03 00:09:57;;;;;;;6.63;5.87;;;6.20;99.90;;;;;;5053233;28;20464;-70
2021/05/03 00:12:22;;;;;;;6.70;5.80;;;6.20;99.90;;;;;;5053374;28;20166;-70
2021/05/03 00:14:50;;;;;;;6.00;5.13;;;6.20;99.90;;;;;;5053633;28;20474;-71
2021/05/03 00:17:15;;;;;;;6.60;5.30;;;6.10;99.90;;;;;;5053022;28;20198;-70
2021/05/03 00:19:41;;;;;;;6.53;5.70;;;6.20;99.90;;;;;;5052439;28;20943;-71
2021/05/03 00:22:06;;;;;;;10.67;5.20;;;6.20;99.90;;;;;;5053239;28;20178;-70
2021/05/03 00:24:32;;;;;;;6.40;5.63;;;6.20;99.90;;;;;;5053067;28;20257;-71
2021/05/03 00:26:57;;;;;;;6.80;6.00;;;6.20;99.90;;;;;;5052012;28;20238;-71
2021/05/03 00:29:23;;;;;;;8.30;5.33;;;6.20;99.90;;;;;;5053333;28;20530;-70
2021/05/03 00:31:48;;;;;;;5.43;4.93;;;6.20;99.90;;;;;;5051748;28;20196;-71
2021/05/03 00:34:14;;;;;;;7.60;5.60;;;6.20;99.90;;;;;;5052999;28;20180;-71
2021/05/03 00:36:40;;;;;;;5.97;4.67;;;6.20;99.90;;;;;;5053887;28;20173;-71
2021/05/03 00:39:06;;;;;;;5.87;5.27;;;6.10;99.90;;;;;;5052588;28;20643;-71
2021/05/03 00:41:32;;;;;;;8.83;5.83;;;6.10;99.90;;;;;;5053241;28;20432;-71
2021/05/03 00:43:57;;;;;;;7.67;5.80;;;6.10;99.90;;;;;;5052698;28;20504;-71
2021/05/03 00:46:23;;;;;;;5.73;5.07;;;6.00;99.90;;;;;;5053005;28;20224;-71
2021/05/03 00:48:49;;;;;;;7.27;4.97;;;6.00;99.90;;;;;;5052597;28;20221;-71
2021/05/03 00:51:15;;;;;;;8.10;5.70;;;5.90;99.90;;;;;;5053043;28;20184;-70
2021/05/03 00:53:41;;;;;;;7.50;5.73;;;5.80;99.90;;;;;;5053044;28;20186;-71
2021/05/03 00:56:07;;;;;;;7.40;6.50;;;5.80;99.90;;;;;;5053251;28;20488;-70
2021/05/03 00:58:34;;;;;;;7.80;4.83;;;5.80;99.90;;;;;;5051773;28;20189;-71
2021/05/03 01:01:00;;;;;;;5.43;4.93;;;5.70;99.90;;;;;;5052661;28;20439;-70
2021/05/03 01:03:25;;;;;;;5.67;4.60;;;5.80;99.90;;;;;;5052688;28;20908;-71
2021/05/03 01:05:51;;;;;;;6.57;5.23;;;5.70;99.90;;;;;;5053156;28;20921;-71
2021/05/03 01:08:17;;;;;;;7.10;5.30;;;5.70;99.90;;;;;;5056251;28;20181;-71
2021/05/03 01:10:42;;;;;;;5.67;5.10;;;5.60;99.90;;;;;;5056435;28;20198;-71
2021/05/03 01:13:08;;;;;;;6.80;5.13;;;5.60;99.90;;;;;;5056725;28;20187;-71
2021/05/03 01:15:33;;;;;;;6.83;5.10;;;5.60;99.90;;;;;;5046533;28;20202;-71
2021/05/03 01:18:02;;;;;;;13.20;6.23;;;5.60;99.90;;;;;;5046175;28;20188;-71
2021/05/03 01:20:33;;;;;;;7.13;6.43;;;5.50;99.90;;;;;;5043336;28;20702;-70
2021/05/03 01:23:00;;;;;;;6.57;5.20;;;5.40;99.90;;;;;;5055765;28;20920;-70
2021/05/03 01:25:31;;;;;;;5.90;5.40;;;5.40;99.90;;;;;;5050300;28;20498;-70
2021/05/03 01:27:57;;;;;;;10.70;6.13;;;5.30;99.90;;;;;;5044062;28;20429;-70
2021/05/03 01:30:39;;;;;;;9.70;5.80;;;5.30;99.90;;;;;;5053038;28;20480;-72
2021/05/03 01:33:06;;;;;;;6.27;5.33;;;5.30;99.90;;;;;;5066892;28;20426;-71
2021/05/03 01:35:33;;;;;;;6.67;5.43;;;5.20;99.90;;;;;;5072281;28;20458;-71
2021/05/03 01:38:00;;;;;;;6.83;5.70;;;5.20;99.90;;;;;;5056940;28;20989;-70
2021/05/03 01:40:28;;;;;;;7.30;5.67;;;5.20;99.90;;;;;;5049949;28;21142;-70
2021/05/03 01:42:55;;;;;;;12.97;6.20;;;5.10;99.90;;;;;;5043885;28;20910;-70
2021/05/03 01:45:27;;;;;;;8.00;6.73;;;5.00;99.90;;;;;;5044796;28;20540;-72
2021/05/03 01:47:54;;;;;;;7.10;6.00;;;5.00;99.90;;;;;;5045817;28;21047;-71
2021/05/03 01:50:21;;;;;;;7.37;5.57;;;5.10;99.90;;;;;;5053770;28;20445;-70
2021/05/03 01:52:48;;;;;;;9.27;6.70;;;5.10;99.90;;;;;;5054443;28;20896;-70
2021/05/03 01:55:14;;;;;;;9.47;7.23;;;5.00;99.90;;;;;;5049230;28;20921;-70
2021/05/03 01:57:40;;;;;;;7.50;6.70;;;4.90;99.90;;;;;;5051230;28;20823;-71
2021/05/03 02:00:08;;;;;;;7.63;6.40;;;4.90;99.90;;;;;;5046266;28;20555;-71
2021/05/03 02:02:34;;;;;;;7.10;6.27;;;4.90;99.90;;;;;;5043042;28;20426;-71
2021/05/03 02:04:59;;;;;;;7.33;5.93;;;4.90;99.90;;;;;;5053207;28;20422;-69
2021/05/03 02:07:25;;;;;;;8.43;5.93;;;4.80;99.90;;;;;;5046281;28;20840;-71
2021/05/03 02:09:50;;;;;;;7.90;6.23;;;4.80;99.90;;;;;;5054931;28;20237;-70
2021/05/03 02:12:16;;;;;;;7.43;6.67;;;4.90;99.90;;;;;;5055140;28;20202;-70
2021/05/03 02:14:42;;;;;;;9.87;7.30;;;4.80;99.90;;;;;;5055128;28;20266;-70
2021/05/03 02:17:09;;;;;;;6.50;5.80;;;4.80;99.90;;;;;;5054908;28;20187;-70
2021/05/03 02:19:35;;;;;;;6.50;5.37;;;4.80;99.90;;;;;;5053804;28;20500;-70
2021/05/03 02:22:01;;;;;;;11.03;6.67;;;4.80;99.90;;;;;;5055157;28;20421;-69
2021/05/03 02:24:26;;;;;;;11.87;7.17;;;4.80;99.90;;;;;;5055564;28;20184;-70
2021/05/03 02:26:52;;;;;;;7.63;6.40;;;4.90;99.90;;;;;;5055094;28;20186;-70
2021/05/03 02:29:17;;;;;;;9.20;6.50;;;4.90;99.90;;;;;;5054508;28;20308;-71
2021/05/03 02:31:46;;;;;;;8.80;6.67;;;4.90;99.90;;;;;;5054782;28;20559;-70
2021/05/03 02:34:12;;;;;;;9.20;6.33;;;4.80;99.90;;;;;;5055576;28;20624;-70
2021/05/03 02:36:38;;;;;;;7.80;7.00;;;4.90;99.90;;;;;;5055063;28;20450;-70
2021/05/03 02:39:04;;;;;;;8.57;6.37;;;4.80;99.90;;;;;;5055130;28;20210;-70
2021/05/03 02:41:34;;;;;;;10.43;7.10;;;4.70;99.90;;;;;;5055019;28;20290;-70
2021/05/03 02:44:00;;;;;;;9.07;6.60;;;4.60;99.90;;;;;;5054599;28;20811;-70
2021/05/03 02:46:27;;;;;;;8.70;6.77;;;4.70;99.90;;;;;;5054096;28;20751;-69
2021/05/03 02:48:54;;;;;;;11.77;7.40;;;4.70;99.90;;;;;;5055070;28;20433;-69
2021/05/03 02:51:19;;;;;;;12.63;7.30;;;4.80;99.90;;;;;;5055429;28;20405;-70
2021/05/03 02:53:45;;;;;;;9.83;7.20;;;4.70;99.90;;;;;;5054744;28;20413;-70
2021/05/03 02:56:10;;;;;;;8.07;7.20;;;4.80;99.90;;;;;;5055637;28;20174;-70
2021/05/03 02:58:36;;;;;;;9.17;6.00;;;4.90;99.90;;;;;;5054263;28;20267;-70
2021/05/03 03:01:01;;;;;;;8.60;6.50;;;5.00;99.90;;;;;;5054706;28;20632;-70
2021/05/03 03:03:27;;;;;;;10.40;7.27;;;5.10;99.90;;;;;;5054237;28;20218;-70
2021/05/03 03:05:52;;;;;;;12.37;6.80;;;5.20;99.90;;;;;;5053195;28;20203;-70
2021/05/03 03:08:18;;;;;;;9.30;6.97;;;5.20;99.90;;;;;;5053920;28;20187;-70
2021/05/03 03:10:43;;;;;;;8.60;6.63;;;5.30;99.90;;;;;;5054397;28;20271;-70
2021/05/03 03:13:09;;;;;;;8.47;6.27;;;5.30;99.90;;;;;;5054631;28;20627;-70
2021/05/03 03:15:36;;;;;;;13.03;7.30;;;5.20;99.90;;;;;;5054732;28;20258;-70
2021/05/03 03:18:02;;;;;;;10.37;8.60;;;5.10;99.90;;;;;;5054288;28;20170;-70
2021/05/03 03:20:28;;;;;;;9.80;7.80;;;4.90;99.90;;;;;;5053978;28;20878;-70
2021/05/03 03:22:54;;;;;;;11.07;7.80;;;4.70;99.90;;;;;;5055117;28;20786;-70
2021/05/03 03:25:20;;;;;;;8.93;7.67;;;4.60;99.90;;;;;;5054590;28;20416;-70
2021/05/03 03:27:46;;;;;;;11.03;7.93;;;4.60;99.90;;;;;;5054451;28;20170;-70
2021/05/03 03:30:13;;;;;;;14.63;8.57;;;4.60;99.90;;;;;;5053565;28;20207;-70
2021/05/03 03:32:44;;;;;;;9.30;7.87;;;4.50;99.90;;;;;;5054341;28;20410;-70
2021/05/03 03:35:15;;;;;;;10.97;8.00;;;4.50;99.90;;;;;;5054362;28;20387;-71
2021/05/03 03:37:40;;;;;;;15.87;7.93;;;4.60;99.90;;;;;;5053828;28;20460;-70
2021/05/03 03:40:07;;;;;;;10.50;7.57;;;4.60;99.90;;;;;;5053813;28;21007;-70
2021/05/03 03:42:32;;;;;;;9.83;7.17;;;4.70;99.90;;;;;;5054134;28;20166;-70
2021/05/03 03:44:58;;;;;;;8.03;6.90;;;4.80;99.90;;;;;;5054555;28;20966;-70
2021/05/03 03:47:25;;;;;;;9.00;7.53;;;4.90;99.90;;;;;;5053603;28;20166;-70
2021/05/03 03:49:51;;;;;;;11.43;7.97;;;5.00;99.90;;;;;;5053815;28;20439;-69
2021/05/03 03:52:16;;;;;;;10.73;7.60;;;5.00;99.90;;;;;;5053517;28;20438;-69
2021/05/03 03:54:42;;;;;;;8.97;7.73;;;5.10;99.90;;;;;;5054378;28;20212;-69
2021/05/03 03:57:07;;;;;;;9.57;7.70;;;5.10;99.90;;;;;;5047242;28;20232;-69
2021/05/03 03:59:37;;;;;;;11.73;7.47;;;5.10;99.90;;;;;;5034683;28;20206;-70
2021/05/03 04:02:04;;;;;;;11.60;7.50;;;5.10;99.90;;;;;;5045049;28;20685;-70
2021/05/03 04:04:31;;;;;;;12.03;9.00;;;5.20;99.90;;;;;;5052913;28;21003;-69
2021/05/03 04:07:12;;;;;;;10.73;7.23;;;5.20;99.90;;;;;;5054254;28;20418;-70
2021/05/03 04:25:32;;;;;;;8.40;7.60;;;5.00;99.90;;;;;;5053161;28;20421;-71
2021/05/03 04:27:57;;;;;;;8.87;7.97;;;5.00;99.90;;;;;;5055708;28;20170;-71
2021/05/03 04:30:23;;;;;;;11.50;8.20;;;5.10;99.90;;;;;;5056286;28;20536;-70
2021/05/03 04:32:48;;;;;;;11.87;8.03;;;5.10;99.90;;;;;;5053345;28;20227;-70
2021/05/03 04:35:14;;;;;;;9.80;7.90;;;5.00;99.90;;;;;;5045235;28;20206;-71
2021/05/03 04:37:40;;;;;;;10.83;7.80;;;5.00;99.90;;;;;;5043196;28;20182;-71
2021/05/03 04:40:06;;;;;;;10.10;7.30;;;5.00;99.90;;;;;;5044230;28;20206;-71
2021/05/03 04:42:31;;;;;;;8.60;7.70;;;4.90;99.90;;;;;;5055953;28;20175;-70
2021/05/03 04:44:57;;;;;;;10.00;9.00;;;5.00;99.90;;;;;;5057949;28;20413;-71
2021/05/03 04:47:23;;;;;;;10.00;9.00;;;4.90;99.90;;;;;;5060960;28;20228;-71
2021/05/03 04:49:48;;;;;;;13.67;10.03;;;4.90;99.90;;;;;;5065257;28;20232;-71
2021/05/03 04:52:14;;;;;;;9.83;8.80;;;5.00;99.90;;;;;;5068879;28;20190;-71
2021/05/03 04:54:40;;;;;;;11.00;9.40;;;5.00;99.90;;;;;;5056474;28;20174;-69
2021/05/03 04:57:06;;;;;;;10.40;8.17;;;5.10;99.90;;;;;;5056592;28;20175;-70
2021/05/03 04:59:31;;;;;;;9.53;8.30;;;5.10;99.90;;;;;;5056991;28;20470;-70
2021/05/03 05:01:57;;;;;;;9.63;8.53;;;5.00;99.90;;;;;;5057251;28;20507;-70
2021/05/03 05:04:22;;;;;;;11.67;8.47;;;4.80;99.90;;;;;;5056677;28;20198;-70
2021/05/03 05:06:48;;;;;;;10.27;9.03;;;4.80;99.90;;;;;;5057327;28;20175;-70
2021/05/03 05:09:14;;;;;;;10.73;9.57;;;4.60;99.90;;;;;;5056918;28;20238;-70
2021/05/03 05:11:39;;;;;;;9.17;8.20;;;4.60;99.90;;;;;;5056793;28;20175;-69
2021/05/03 05:14:05;;;;;;;15.40;8.87;;;4.50;99.90;;;;;;5055557;28;20174;-69
2021/05/03 05:16:31;;;;;;;9.80;8.83;;;4.40;99.90;;;;;;5056860;28;20210;-69
2021/05/03 05:18:56;;;;;;;10.23;9.10;;;4.30;99.90;;;;;;5056775;28;20234;-70
2021/05/03 05:21:22;;;;;;;11.77;9.33;;;4.30;99.90;;;;;;5056286;28;20173;-70
2021/05/03 05:23:48;;;;;;;12.60;9.17;;;4.30;99.90;;;;;;5057211;28;20668;-71
2021/05/03 05:26:14;;;;;;;14.10;9.63;;;4.50;99.90;;;;;;5056528;28;20257;-71
2021/05/03 05:28:40;;;;;;;12.93;10.00;;;4.60;99.90;;;;;;5056513;28;20413;-71
2021/05/03 05:31:06;;;;;;;12.60;10.40;;;4.80;99.90;;;;;;5056024;28;20982;-70
2021/05/03 05:33:31;;;;;;;16.13;10.73;;;4.90;99.90;;;;;;5056606;28;20181;-70
2021/05/03 05:35:57;;;;;;;10.53;9.00;;;5.10;99.90;;;;;;5056116;28;20224;-71
2021/05/03 05:38:22;;;;;;;14.20;10.97;;;5.40;99.90;;;;;;5056093;28;20192;-71
2021/05/03 05:40:48;;;;;;;13.03;10.10;;;5.60;99.90;;;;;;5055773;28;20244;-71
2021/05/03 05:43:14;;;;;;;12.20;10.00;;;5.80;99.90;;;;;;5055840;28;20246;-71
2021/05/03 05:45:40;;;;;;;11.27;10.17;;;5.90;99.90;;;;;;5055847;28;20174;-71
2021/05/03 05:48:06;;;;;;;11.63;10.00;;;6.00;99.90;;;;;;5055889;28;20441;-71
2021/05/03 05:50:32;;;;;;;11.57;10.33;;;6.10;99.90;;;;;;5055921;28;20428;-71
2021/05/03 05:52:58;;;;;;;11.53;10.17;;;6.20;99.90;;;;;;5055948;28;20481;-71
2021/05/03 05:55:24;;;;;;;10.50;9.40;;;6.30;99.90;;;;;;5055540;28;20584;-71
2021/05/03 05:57:50;;;;;;;14.03;10.00;;;6.30;99.90;;;;;;5055544;28;20178;-70
2021/05/03 06:00:16;;;;;;;11.87;9.37;;;6.40;99.90;;;;;;5055263;28;20991;-71
2021/05/03 06:02:41;;;;;;;10.67;8.77;;;6.40;99.90;;;;;;5055670;28;20181;-70
2021/05/03 06:05:08;;;;;;;9.77;8.77;;;6.50;99.90;;;;;;5054844;28;20420;-71
2021/05/03 06:07:33;;;;;;;10.80;8.33;;;6.50;99.90;;;;;;5055316;28;20174;-71
2021/05/03 06:09:59;;;;;;;10.07;8.03;;;6.60;99.90;;;;;;5065184;28;20477;-71
2021/05/03 06:12:24;;;;;;;10.83;7.83;;;6.70;99.90;;;;;;5059393;28;20235;-72
2021/05/03 06:14:52;;;;;;;10.50;7.97;;;6.80;99.90;;;;;;5069269;28;20561;-71
2021/05/03 06:17:18;;;;;;;10.43;7.83;;;7.00;99.90;;;;;;5064957;28;20235;-71
2021/05/03 06:19:44;;;;;;;9.97;9.00;;;7.20;99.90;;;;;;5071597;28;20488;-70
2021/05/03 06:22:10;;;;;;;10.50;9.30;;;7.30;99.90;;;;;;5055076;28;20429;-71
2021/05/03 06:24:35;;;;;;;11.50;9.30;;;7.40;99.90;;;;;;5055222;28;20397;-71
2021/05/03 06:27:04;;;;;;;8.43;7.50;;;7.60;99.90;;;;;;5055865;28;20208;-71
2021/05/03 06:29:29;;;;;;;9.50;8.17;;;7.70;99.90;;;;;;5055560;28;20256;-70
2021/05/03 06:32:48;;;;;;;9.77;8.63;;;7.90;99.90;;;;;;5054636;28;20790;-70
2021/05/03 06:36:02;;;;;;;10.73;7.80;;;8.10;99.90;;;;;;5052858;28;20182;-70
2021/05/03 06:38:28;;;;;;;8.60;7.80;;;8.30;99.40;;;;;;5052666;28;20428;-70
2021/05/03 06:40:53;;;;;;;10.30;7.80;;;8.40;99.10;;;;;;5053567;28;20460;-70
2021/05/03 06:43:19;;;;;;;8.83;7.73;;;8.50;98.90;;;;;;5066568;28;20181;-70
2021/05/03 06:45:45;;;;;;;7.60;6.90;;;8.50;98.50;;;;;;5075684;28;20665;-70
2021/05/03 06:48:12;;;;;;;8.07;7.23;;;8.50;98.30;;;;;;5059969;28;20259;-70
2021/05/03 06:50:41;;;;;;;8.27;7.40;;;8.50;98.20;;;;;;5054371;28;20464;-70
2021/05/03 06:53:07;;;;;;;10.30;8.20;;;8.50;97.90;;;;;;5054785;28;20440;-70
2021/05/03 06:55:32;;;;;;;8.60;7.33;;;8.50;98.10;;;;;;5054370;28;20409;-70
2021/05/03 06:57:58;;;;;;;9.73;7.70;;;8.60;98.10;;;;;;5054576;28;20649;-71
2021/05/03 07:00:25;;;;;;;8.50;7.60;;;8.70;97.70;;;;;;5054911;28;20217;-69
2021/05/03 07:02:51;;;;;;;8.67;7.70;;;8.60;97.70;;;;;;5054943;28;20597;-70
2021/05/03 07:05:17;;;;;;;8.60;7.70;;;8.70;97.70;;;;;;5054117;28;20408;-70
2021/05/03 07:07:43;;;;;;;8.77;7.83;;;8.90;97.20;;;;;;5053671;28;20479;-70
2021/05/03 07:10:09;;;;;;;7.90;7.10;;;8.90;97.00;;;;;;5054381;28;20209;-70
2021/05/03 07:12:43;;;;;;;10.53;8.00;;;8.90;96.90;;;;;;5054617;28;20723;-69
2021/05/03 07:15:09;;;;;;;9.93;8.43;;;8.80;96.80;;;;;;5054819;28;20462;-69
2021/05/03 07:17:35;;;;;;;9.63;8.63;;;8.80;96.80;;;;;;5055819;28;20981;-70
2021/05/03 07:20:01;;;;;;;10.10;8.33;;;8.80;97.00;;;;;;5054500;28;20456;-70
2021/05/03 07:22:27;;;;;;;8.83;7.77;;;8.80;96.90;;;;;;5054400;28;20173;-70
2021/05/03 07:24:53;;;;;;;9.40;8.37;;;8.80;96.80;;;;;;5054375;28;20826;-70
2021/05/03 07:27:18;;;;;;;11.00;7.63;;;8.80;96.80;;;;;;5053649;28;20420;-70
2021/05/03 07:29:44;;;;;;;9.40;8.33;;;8.90;96.60;;;;;;5054172;28;20217;-69
2021/05/03 07:32:10;;;;;;;11.00;8.60;;;9.00;96.60;;;;;;5054903;28;20238;-70
2021/05/03 07:34:35;;;;;;;13.27;8.73;;;9.10;96.40;;;;;;5054194;28;20618;-69
2021/05/03 07:37:03;;;;;;;11.97;9.17;;;9.10;96.20;;;;;;5052274;28;20174;-69
2021/05/03 07:39:28;;;;;;;9.07;8.17;;;9.20;95.90;;;;;;5053741;28;20261;-70
2021/05/03 07:41:54;;;;;;;11.73;7.73;;;9.20;95.90;;;;;;5052696;28;20465;-70
2021/05/03 07:44:21;;;;;;;8.43;7.63;;;9.20;95.90;;;;;;5053830;28;20177;-70
2021/05/03 07:46:46;;;;;;;8.77;7.87;;;9.30;95.60;;;;;;5053823;28;20518;-70
2021/05/03 07:49:12;;;;;;;10.00;7.27;;;9.30;95.30;;;;;;5053164;28;20445;-70
2021/05/03 07:51:38;;;;;;;8.60;7.80;;;9.30;95.10;;;;;;5053520;28;20171;-70
2021/05/03 07:54:04;;;;;;;7.20;6.50;;;9.40;94.70;;;;;;5053767;28;20255;-70
2021/05/03 07:56:31;;;;;;;8.00;7.20;;;9.60;94.50;;;;;;5053897;28;20166;-70
2021/05/03 07:58:57;;;;;;;7.97;5.57;;;9.70;94.30;;;;;;5052886;28;20468;-70
2021/05/03 08:01:22;;;;;;;5.93;5.03;;;9.70;93.30;;;;;;5054240;28;20423;-70
2021/05/03 08:03:48;;;;;;;6.77;5.60;;;9.70;92.20;;;;;;5054258;28;20192;-70
2021/05/03 08:06:14;;;;;;;5.73;5.23;;;9.70;91.70;;;;;;5053564;28;20621;-70
2021/05/03 08:08:42;;;;;;;5.13;4.17;;;9.90;91.70;;;;;;5053340;28;20169;-70
2021/05/03 08:11:08;;;;;;;5.00;4.20;;;9.90;89.90;;;;;;5052878;28;20418;-71
2021/05/03 08:13:33;;;;;;;5.20;4.70;;;9.90;88.30;;;;;;5054020;28;20407;-70
2021/05/03 08:16:02;;;;;;;4.33;3.93;;;10.00;87.50;;;;;;5052269;28;20511;-70
2021/05/03 08:18:29;;;;;;;5.30;4.00;;;10.20;86.30;;;;;;5073473;28;20279;-70
2021/05/03 08:20:56;;;;;;;5.73;4.40;;;10.20;84.50;;;;;;5066163;28;20487;-70
2021/05/03 08:23:22;;;;;;;5.43;4.53;;;10.30;85.00;;;;;;5054086;28;20450;-70
2021/05/03 08:25:50;;;;;;;4.47;4.03;;;10.40;84.70;;;;;;5056514;28;20441;-70
2021/05/03 08:28:16;;;;;;;4.43;3.77;;;10.50;84.70;;;;;;5059184;28;20408;-71
2021/05/03 08:30:42;;;;;;;6.63;4.03;;;10.60;83.30;;;;;;5062304;28;20478;-70
2021/05/03 08:33:08;;;;;;;2.97;2.77;;;10.70;83.30;;;;;;5053607;28;20748;-70
2021/05/03 08:35:34;;;;;;;3.63;3.33;;;10.70;79.00;;;;;;5053231;28;20241;-71
2021/05/03 08:38:00;;;;;;;4.60;3.60;;;10.80;78.80;;;;;;5052752;28;20174;-70
2021/05/03 08:40:26;;;;;;;5.70;3.17;;;10.90;78.40;;;;;;5051897;28;20209;-70
2021/05/03 08:42:53;;;;;;;4.30;3.90;;;11.00;77.60;;;;;;5052780;28;20419;-70
2021/05/03 08:45:19;;;;;;;5.30;3.77;;;11.10;78.10;;;;;;5053372;28;20501;-71
2021/05/03 08:47:59;;;;;;;4.80;3.97;;;11.20;77.60;;;;;;5053316;28;20408;-70
2021/05/03 08:50:42;;;;;;;5.10;4.47;;;11.20;77.60;;;;;;5053091;28;20190;-71
2021/05/03 08:53:10;;;;;;;4.10;3.40;;;11.30;77.50;;;;;;5052748;28;20417;-71
2021/05/03 08:55:36;;;;;;;4.07;3.67;;;11.40;75.70;;;;;;5052963;28;20413;-71
2021/05/03 08:58:01;;;;;;;3.77;3.47;;;11.40;73.90;;;;;;5052849;28;20865;-71
2021/05/03 09:00:27;;;;;;;3.10;2.80;;;11.50;72.90;;;;;;5053185;28;20202;-71
2021/05/03 09:02:53;;;;;;;8.60;3.67;;;11.60;69.80;;;;;;5053028;28;20249;-71
2021/05/03 09:05:19;;;;;;;5.90;3.70;;;11.70;70.70;;;;;;5052670;28;20581;-71
2021/05/03 09:07:51;;;;;;;5.57;5.13;;;11.80;70.80;;;;;;5051574;28;20420;-71
2021/05/03 09:10:20;;;;;;;6.47;5.87;;;11.80;72.20;;;;;;5052954;28;20202;-71
2021/05/03 09:12:46;;;;;;;5.20;4.80;;;11.60;72.70;;;;;;5052903;28;20757;-71
2021/05/03 09:15:12;;;;;;;5.73;5.23;;;11.70;73.40;;;;;;5052753;28;20450;-71
2021/05/03 09:17:40;;;;;;;12.10;4.90;;;11.60;72.70;;;;;;5067084;28;20419;-70
2021/05/03 09:20:15;;;;;;;5.80;5.23;;;11.70;72.90;;;;;;5073196;28;20846;-70
2021/05/03 09:22:48;;;;;;;5.20;4.70;;;11.70;72.90;;;;;;5073389;28;20513;-69
2021/05/03 09:25:29;;;;;;;5.80;5.20;;;11.80;73.00;;;;;;5061857;28;20492;-71
2021/05/03 09:28:27;;;;;;;5.30;4.57;;;11.70;72.50;;;;;;5053882;28;20451;-70
2021/05/03 09:30:55;;;;;;;4.93;4.40;;;11.80;72.80;;;;;;5056032;28;20932;-71
2021/05/03 09:33:28;;;;;;;7.00;5.37;;;11.90;73.00;;;;;;5055131;28;20424;-70
2021/05/03 09:36:12;;;;;;;12.97;4.70;;;12.00;72.00;;;;;;5056492;28;20416;-71
2021/05/03 09:38:49;;;;;;;5.47;4.07;;;12.00;71.10;;;;;;5055937;28;20451;-71
2021/05/03 09:41:19;;;;;;;5.00;4.00;;;12.00;70.80;;;;;;5056856;28;20722;-71
2021/05/03 09:44:03;;;;;;;4.67;4.27;;;12.10;71.00;;;;;;5055712;28;20850;-71
2021/05/03 09:46:45;;;;;;;6.60;4.53;;;12.20;71.00;;;;;;5056603;28;20408;-71
2021/05/03 09:49:16;;;;;;;4.50;3.80;;;12.10;68.20;;;;;;5054112;28;20460;-71
2021/05/03 09:51:57;;;;;;;5.35;4.80;;;12.10;66.50;;;;;;5056668;28;20378;-71
2021/05/03 09:54:27;;;;;;;5.20;4.43;;;12.20;68.30;;;;;;5056047;28;20170;-70
2021/05/03 09:57:07;;;;;;;4.97;4.40;;;12.40;68.80;;;;;;5056425;28;21074;-71
2021/05/03 09:59:34;;;;;;;5.43;4.60;;;12.50;68.80;;;;;;5056101;28;20830;-69
2021/05/03 10:05:09;;;;;;;8.03;6.37;;;12.80;68.80;;;;;;5035998;28;20981;-71
2021/05/03 10:07:37;;;;;;;6.80;5.00;;;12.80;68.60;;;;;;5036239;28;20402;-71
2021/05/03 10:10:08;;;;;;;9.20;5.43;;;12.90;68.70;;;;;;5036277;28;20464;-70
2021/05/03 10:12:34;;;;;;;5.97;5.20;;;12.70;68.20;;;;;;5055638;28;20440;-69
2021/05/03 10:15:06;;;;;;;7.40;5.70;;;12.70;69.00;;;;;;5055592;28;20763;-69
2021/05/03 10:17:32;;;;;;;6.03;5.43;;;12.80;69.50;;;;;;5070044;28;20816;-70
2021/05/03 10:19:59;;;;;;;6.07;5.13;;;12.80;69.50;;;;;;5075731;28;20460;-71
2021/05/03 10:22:28;;;;;;;9.80;5.87;;;13.00;70.20;;;;;;5061273;28;20898;-71
2021/05/03 10:24:59;;;;;;;7.53;5.90;;;13.20;69.60;;;;;;5055826;28;20404;-71
2021/05/03 10:27:26;;;;;;;7.33;5.63;;;13.30;68.30;;;;;;5055237;28;20511;-70
2021/05/03 10:30:15;;;;;;;7.10;6.50;;;13.40;67.60;;;;;;5056477;28;20511;-69
2021/05/03 10:32:41;;;;;;;6.93;6.23;;;13.60;67.70;;;;;;5055736;28;20436;-70
2021/05/03 10:35:23;;;;;;;7.17;6.47;;;13.60;66.70;;;;;;5055833;28;20404;-70
2021/05/03 10:37:49;;;;;;;7.40;6.60;;;13.80;66.20;;;;;;5054602;28;20531;-70
2021/05/03 10:40:20;;;;;;;7.90;6.00;;;13.80;65.50;;;;;;5053685;28;20476;-70
2021/05/03 10:43:01;;;;;;;7.00;6.30;;;13.70;64.90;;;;;;5057149;28;20405;-69
2021/05/03 10:46:07;;;;;;;6.57;5.97;;;13.70;65.10;;;;;;5056856;28;20921;-70
2021/05/03 10:49:02;;;;;;;6.57;5.97;;;13.60;64.10;;;;;;5058013;28;20451;-69
2021/05/03 10:51:30;;;;;;;7.60;6.47;;;13.70;64.80;;;;;;5055216;28;20427;-70
2021/05/03 10:53:56;;;;;;;7.00;6.40;;;13.70;64.50;;;;;;5057616;28;20512;-69
2021/05/03 10:56:41;;;;;;;7.50;6.60;;;13.80;63.40;;;;;;5056550;28;20428;-70
2021/05/03 10:59:11;;;;;;;9.23;6.40;;;13.70;63.40;;;;;;5056870;28;20480;-72
2021/05/03 11:01:52;;;;;;;7.53;6.93;;;13.70;64.00;;;;;;5057208;28;20432;-70
2021/05/03 11:04:38;;;;;;;7.90;7.00;;;13.70;63.10;;;;;;5056427;28;20451;-70
2021/05/03 11:07:08;;;;;;;8.80;7.00;;;13.70;63.20;;;;;;5059433;28;20381;-70
2021/05/03 11:09:41;;;;;;;7.33;6.50;;;13.70;63.50;;;;;;5060776;28;20822;-69
2021/05/03 11:12:09;;;;;;;7.40;6.60;;;13.80;63.60;;;;;;5058263;28;20409;-70
2021/05/03 11:14:37;;;;;;;7.83;7.13;;;13.80;62.90;;;;;;5057098;28;20447;-70
2021/05/03 11:17:03;;;;;;;7.23;6.50;;;13.80;62.30;;;;;;5066442;28;20784;-70
2021/05/03 11:22:21;;;;;;;7.03;6.43;;;14.00;61.50;;;;;;5076223;28;20407;-70
2021/05/03 11:25:02;;;;;;;8.30;7.50;;;14.10;61.20;;;;;;5036628;28;20512;-70
2021/05/03 11:27:56;;;;;;;8.47;7.47;;;14.10;61.20;;;;;;5035750;28;20540;-70
2021/05/03 11:30:40;;;;;;;8.00;7.30;;;14.10;60.80;;;;;;5035697;28;20445;-70
2021/05/03 11:33:16;;;;;;;9.23;8.33;;;13.90;62.20;;;;;;5045484;28;20495;-70
2021/05/03 11:36:00;;;;;;;7.97;7.27;;;13.80;62.10;;;;;;5035425;28;20405;-70
2021/05/03 11:38:44;;;;;;;7.77;7.17;;;13.60;61.00;;;;;;5035275;28;20481;-70
2021/05/03 11:41:18;;;;;;;8.10;7.30;;;13.60;61.30;;;;;;5033567;28;20782;-70
2021/05/03 11:46:32;;;;;;;8.03;7.20;;;13.80;61.70;;;;;;5035901;28;20373;-70
2021/05/03 11:49:16;;;;;;;8.33;7.53;;;13.70;61.10;;;;;;5033583;28;20422;-70
2021/05/03 11:51:57;;;;;;;8.60;7.33;;;13.80;60.90;;;;;;5033303;28;20425;-70
2021/05/03 11:54:23;;;;;;;8.03;7.23;;;13.80;61.10;;;;;;5035261;28;20386;-71
2021/05/03 11:56:54;;;;;;;9.27;8.10;;;13.90;61.30;;;;;;5054382;28;20417;-70
2021/05/03 11:59:20;;;;;;;7.70;6.70;;;13.80;61.10;;;;;;5054040;28;20201;-70
2021/05/03 12:02:01;;;;;;;9.17;8.33;;;13.90;61.50;;;;;;5054573;28;20416;-70
2021/05/03 12:04:45;;;;;;;8.07;7.37;;;14.00;60.70;;;;;;5065307;28;20178;-70
2021/05/03 12:07:23;;;;;;;8.13;7.33;;;14.00;60.40;;;;;;5056769;28;20716;-70
2021/05/03 12:10:21;;;;;;;7.60;6.90;;;13.90;60.50;;;;;;5053258;28;20431;-70
2021/05/03 12:12:54;;;;;;;9.07;8.03;;;14.00;61.10;;;;;;5031606;28;20540;-70
2021/05/03 12:15:27;;;;;;;9.60;8.57;;;13.90;64.40;;;;;;5031332;28;20460;-70
2021/05/03 12:17:54;;;;;;;8.87;8.00;;;13.80;65.00;;;;;;5048184;28;20425;-70
2021/05/03 12:20:23;;;;;;;8.50;7.73;;;13.70;63.20;;;;;;5050788;28;20479;-70
2021/05/03 12:22:51;;;;;;;9.27;8.10;;;13.70;62.20;;;;;;5051238;28;20405;-70
2021/05/03 12:25:17;;;;;;;8.47;7.70;;;13.80;62.20;;;;;;5039155;28;20793;-70
2021/05/03 12:27:42;;;;;;;9.07;8.17;;;13.80;62.20;;;;;;5031757;28;20417;-71
2021/05/03 12:30:09;;;;;;;9.50;7.80;;;13.90;62.10;;;;;;5031540;28;20223;-70
2021/05/03 12:32:37;;;;;;;7.73;7.13;;;13.90;61.10;;;;;;5031380;28;20253;-70
2021/05/03 12:35:17;;;;;;;7.30;6.63;;;14.00;60.50;;;;;;5030998;28;20468;-71
2021/05/03 12:37:43;;;;;;;7.87;7.17;;;13.90;59.20;;;;;;5031689;28;20917;-70
2021/05/03 12:40:09;;;;;;;7.83;7.13;;;13.90;59.20;;;;;;5031105;28;20471;-70
2021/05/03 12:42:37;;;;;;;8.87;7.00;;;13.70;58.80;;;;;;5031282;28;20406;-70
2021/05/03 12:51:32;;;;;;;8.40;7.63;;;13.60;59.70;;;;;;5052989;28;20516;-71
2021/05/03 12:57:21;;;;;;;9.00;8.20;;;13.70;60.50;;;;;;5052941;28;20411;-70
2021/05/03 13:00:07;;;;;;;9.03;8.23;;;14.00;60.40;;;;;;5052517;28;20483;-71
2021/05/03 13:05:11;;;;;;;8.83;8.13;;;14.30;60.90;;;;;;5057163;28;20169;-71
2021/05/03 13:29:14;;;;;;;9.30;8.30;;;14.00;59.50;;;;;;5056113;28;20443;-71
2021/05/03 13:31:43;;;;;;;9.13;7.67;;;13.90;60.50;;;;;;5056671;28;20467;-69
2021/05/03 13:34:11;;;;;;;9.00;8.20;;;13.80;60.70;;;;;;5056000;28;20413;-70
2021/05/03 13:36:38;;;;;;;8.20;7.40;;;13.70;60.40;;;;;;5056402;28;20462;-70
2021/05/03 13:39:08;;;;;;;8.00;7.30;;;13.80;60.60;;;;;;5055837;28;20512;-70
2021/05/03 13:41:38;;;;;;;8.07;7.33;;;13.80;61.50;;;;;;5056668;28;20428;-70
2021/05/03 13:44:05;;;;;;;8.27;7.50;;;14.00;60.90;;;;;;5055629;28;20424;-70
2021/05/03 13:46:31;;;;;;;7.90;7.20;;;14.20;60.20;;;;;;5055858;28;20420;-70
2021/05/03 13:48:57;;;;;;;7.40;6.70;;;14.50;59.80;;;;;;5056003;28;20443;-70
2021/05/03 13:51:23;;;;;;;9.30;7.57;;;14.70;59.40;;;;;;5055219;28;20437;-71
2021/05/03 13:53:49;;;;;;;7.80;7.10;;;14.70;58.40;;;;;;5055471;28;20480;-70
2021/05/03 13:56:16;;;;;;;8.70;7.87;;;14.70;58.30;;;;;;5056071;28;20420;-70